Strona główna
METAR-TAF:

METAR-TAF

Lotnisko :

Port lotniczy Mae Sot

Mae Sot, Tajlandia

Szerokość geograficzna: 16-40N, Długość geograficzna: 098-33E, wysokość: 196 m

Aktualna obserwacja pogody

Raport powstał 9 godziny i 18 minut temu, godzina 11:00 UTC
Wiatr 7 kt od wschodnio-północny wschód
Temperatura 27°C
Wilgotność 66%
Ciśnienie 1011 hPa
Widzialność 10 km lub więcej
Mało chmury na wysokości 2500 ft
Przerywane chmury na wysokości 8000 ft

METAR: VTPM 091100Z 07007KT 9999 FEW025 BKN080 27/20 Q1011 NOSIG

czas: 03:18 (20:18 UTC)

Prognoza

Raport powstał 3 godziny i 18 minut temu, godzina 17:00 UTC
Prognoza ważna od 09 godzina 18 UTC do 10 godzina 18 UTC
Wiatr 5 kt od wschodnio-północny wschód
Widzialność 10 km lub więcej
Mało chmury na wysokości 2500 ft
Stopniowe zmiany
od 09 godzina 21 UTC do 09 godzina 23 UTC
Widzialność: 2000 m
zamglenie
Stopniowe zmiany
od 10 godzina 01 UTC do 10 godzina 03 UTC
Widzialność 10 km lub więcej

TAF: VTPM 091700Z 0918/1018 07005KT 9999 FEW025 BECMG 0921/0923 2000 BR BECMG 1001/1003 9999 NSW

Obserwacja i prognoza pogody dla ponad 4000 lotnisk (raport METAR i TAF).

Dostępne stacje oznaczono żółtymi i czerwonymi punktami na mapie.

Najedź kursorem aby zobaczyć nazwę stacji.

Kliknij aby zobaczyć obserwacje i prognozy pogody.

Aby zmienić mapę: kliknij na zielony przycisk z czarnym krzyżykiem, aby powiększyć; na zielony przycisk z myślnikiem, aby pomniejszyć; na zielone strzałki, aby przejść do map sąsiednich.


METAR-TAF: